sensor_id;sensor_type;location;lat;lon;timestamp;P1;durP1;ratioP1;P2;durP2;ratioP2
69325;SDS011;56471;53.508;49.252;2023-01-28T00:02:05;79.85;;;29.45;;
69325;SDS011;56471;53.508;49.252;2023-01-28T00:04:31;81.13;;;28.58;;
69325;SDS011;56471;53.508;49.252;2023-01-28T00:06:57;77.35;;;28.08;;
69325;SDS011;56471;53.508;49.252;2023-01-28T00:09:23;70.85;;;26.80;;
69325;SDS011;56471;53.508;49.252;2023-01-28T00:11:48;73.55;;;25.63;;
69325;SDS011;56471;53.508;49.252;2023-01-28T00:14:14;70.38;;;25.95;;
69325;SDS011;56471;53.508;49.252;2023-01-28T00:16:40;65.43;;;23.98;;
69325;SDS011;56471;53.508;49.252;2023-01-28T00:19:06;58.97;;;21.60;;
69325;SDS011;56471;53.508;49.252;2023-01-28T00:21:32;56.65;;;21.48;;
69325;SDS011;56471;53.508;49.252;2023-01-28T00:23:58;56.55;;;21.98;;
69325;SDS011;56471;53.508;49.252;2023-01-28T00:26:24;53.47;;;20.48;;
69325;SDS011;56471;53.508;49.252;2023-01-28T00:28:50;49.22;;;19.10;;
69325;SDS011;56471;53.508;49.252;2023-01-28T00:31:17;47.38;;;18.33;;
69325;SDS011;56471;53.508;49.252;2023-01-28T00:33:45;50.40;;;18.60;;
69325;SDS011;56471;53.508;49.252;2023-01-28T00:36:13;46.63;;;17.70;;
69325;SDS011;56471;53.508;49.252;2023-01-28T00:38:40;44.75;;;17.02;;
69325;SDS011;56471;53.508;49.252;2023-01-28T00:43:36;41.85;;;16.00;;
69325;SDS011;56471;53.508;49.252;2023-01-28T00:46:03;37.85;;;14.98;;
69325;SDS011;56471;53.508;49.252;2023-01-28T00:48:31;35.55;;;14.10;;
69325;SDS011;56471;53.508;49.252;2023-01-28T00:51:01;36.88;;;14.55;;
69325;SDS011;56471;53.508;49.252;2023-01-28T00:53:26;35.25;;;13.82;;
69325;SDS011;56471;53.508;49.252;2023-01-28T00:55:52;30.77;;;13.27;;
69325;SDS011;56471;53.508;49.252;2023-01-28T00:58:18;32.13;;;13.05;;
69325;SDS011;56471;53.508;49.252;2023-01-28T01:00:44;31.67;;;12.82;;
69325;SDS011;56471;53.508;49.252;2023-01-28T01:03:10;30.70;;;12.63;;
69325;SDS011;56471;53.508;49.252;2023-01-28T01:05:36;27.25;;;11.52;;
69325;SDS011;56471;53.508;49.252;2023-01-28T01:08:02;30.92;;;12.45;;
69325;SDS011;56471;53.508;49.252;2023-01-28T01:10:28;26.98;;;11.05;;
69325;SDS011;56471;53.508;49.252;2023-01-28T01:12:53;27.60;;;11.10;;
69325;SDS011;56471;53.508;49.252;2023-01-28T01:15:23;27.45;;;10.75;;
69325;SDS011;56471;53.508;49.252;2023-01-28T01:17:49;25.52;;;10.48;;
69325;SDS011;56471;53.508;49.252;2023-01-28T01:20:17;23.55;;;10.35;;
69325;SDS011;56471;53.508;49.252;2023-01-28T01:22:45;21.83;;;9.85;;
69325;SDS011;56471;53.508;49.252;2023-01-28T01:25:11;24.92;;;9.15;;
69325;SDS011;56471;53.508;49.252;2023-01-28T01:27:38;19.00;;;8.63;;
69325;SDS011;56471;53.508;49.252;2023-01-28T01:30:04;18.92;;;8.63;;
69325;SDS011;56471;53.508;49.252;2023-01-28T01:32:31;20.88;;;8.35;;
69325;SDS011;56471;53.508;49.252;2023-01-28T01:34:59;21.30;;;8.45;;
69325;SDS011;56471;53.508;49.252;2023-01-28T01:37:25;18.92;;;8.60;;
69325;SDS011;56471;53.508;49.252;2023-01-28T01:39:51;17.75;;;7.90;;
69325;SDS011;56471;53.508;49.252;2023-01-28T01:42:17;19.15;;;8.05;;
69325;SDS011;56471;53.508;49.252;2023-01-28T01:52:59;16.33;;;7.22;;
69325;SDS011;56471;53.508;49.252;2023-01-28T01:55:33;16.92;;;7.22;;
69325;SDS011;56471;53.508;49.252;2023-01-28T01:58:01;16.80;;;7.25;;
69325;SDS011;56471;53.508;49.252;2023-01-28T02:00:30;15.13;;;7.10;;
69325;SDS011;56471;53.508;49.252;2023-01-28T02:02:56;14.55;;;6.72;;
69325;SDS011;56471;53.508;49.252;2023-01-28T02:05:23;14.45;;;6.38;;
69325;SDS011;56471;53.508;49.252;2023-01-28T02:07:50;14.57;;;6.55;;
69325;SDS011;56471;53.508;49.252;2023-01-28T02:10:41;12.05;;;6.38;;
69325;SDS011;56471;53.508;49.252;2023-01-28T02:13:07;13.63;;;6.47;;
69325;SDS011;56471;53.508;49.252;2023-01-28T02:15:33;11.95;;;5.72;;
69325;SDS011;56471;53.508;49.252;2023-01-28T02:17:59;14.15;;;6.10;;
69325;SDS011;56471;53.508;49.252;2023-01-28T02:20:26;14.35;;;6.20;;
69325;SDS011;56471;53.508;49.252;2023-01-28T02:23:14;11.45;;;5.63;;
69325;SDS011;56471;53.508;49.252;2023-01-28T02:32:08;11.35;;;5.50;;
69325;SDS011;56471;53.508;49.252;2023-01-28T02:34:39;11.65;;;5.32;;
69325;SDS011;56471;53.508;49.252;2023-01-28T02:39:47;10.50;;;5.20;;
69325;SDS011;56471;53.508;49.252;2023-01-28T02:42:24;10.45;;;5.35;;
69325;SDS011;56471;53.508;49.252;2023-01-28T02:44:55;8.80;;;5.03;;
69325;SDS011;56471;53.508;49.252;2023-01-28T02:47:20;9.43;;;4.65;;
69325;SDS011;56471;53.508;49.252;2023-01-28T02:50:09;8.82;;;4.43;;
69325;SDS011;56471;53.508;49.252;2023-01-28T02:56:11;8.73;;;4.80;;
69325;SDS011;56471;53.508;49.252;2023-01-28T03:05:22;8.80;;;4.45;;
69325;SDS011;56471;53.508;49.252;2023-01-28T03:07:55;8.00;;;4.65;;
69325;SDS011;56471;53.508;49.252;2023-01-28T03:10:22;8.77;;;4.38;;
69325;SDS011;56471;53.508;49.252;2023-01-28T03:12:51;9.50;;;4.50;;
69325;SDS011;56471;53.508;49.252;2023-01-28T03:15:40;7.55;;;4.30;;
69325;SDS011;56471;53.508;49.252;2023-01-28T03:18:35;7.85;;;4.20;;
69325;SDS011;56471;53.508;49.252;2023-01-28T03:21:34;8.48;;;4.20;;
69325;SDS011;56471;53.508;49.252;2023-01-28T03:30:10;7.70;;;4.30;;
69325;SDS011;56471;53.508;49.252;2023-01-28T03:33:01;7.97;;;4.22;;
69325;SDS011;56471;53.508;49.252;2023-01-28T03:35:47;8.02;;;4.18;;
69325;SDS011;56471;53.508;49.252;2023-01-28T03:38:32;8.43;;;4.28;;
69325;SDS011;56471;53.508;49.252;2023-01-28T03:41:07;7.93;;;4.05;;
69325;SDS011;56471;53.508;49.252;2023-01-28T03:43:36;8.60;;;4.03;;
69325;SDS011;56471;53.508;49.252;2023-01-28T03:46:02;7.60;;;3.90;;
69325;SDS011;56471;53.508;49.252;2023-01-28T03:48:30;7.30;;;4.47;;
69325;SDS011;56471;53.508;49.252;2023-01-28T03:50:56;7.70;;;4.03;;
69325;SDS011;56471;53.508;49.252;2023-01-28T03:53:24;8.07;;;4.07;;
69325;SDS011;56471;53.508;49.252;2023-01-28T03:55:51;6.47;;;3.72;;
69325;SDS011;56471;53.508;49.252;2023-01-28T03:58:18;7.65;;;3.97;;
69325;SDS011;56471;53.508;49.252;2023-01-28T04:00:45;6.93;;;3.75;;
69325;SDS011;56471;53.508;49.252;2023-01-28T04:03:12;6.93;;;3.58;;
69325;SDS011;56471;53.508;49.252;2023-01-28T04:08:10;7.40;;;4.00;;
69325;SDS011;56471;53.508;49.252;2023-01-28T04:10:37;5.70;;;3.40;;
69325;SDS011;56471;53.508;49.252;2023-01-28T04:13:03;5.90;;;3.83;;
69325;SDS011;56471;53.508;49.252;2023-01-28T04:15:30;8.75;;;4.13;;
69325;SDS011;56471;53.508;49.252;2023-01-28T04:17:55;8.23;;;3.90;;
69325;SDS011;56471;53.508;49.252;2023-01-28T04:20:21;6.03;;;3.70;;
69325;SDS011;56471;53.508;49.252;2023-01-28T04:22:47;7.13;;;4.10;;
69325;SDS011;56471;53.508;49.252;2023-01-28T04:25:13;6.55;;;3.88;;
69325;SDS011;56471;53.508;49.252;2023-01-28T04:27:39;5.97;;;3.08;;
69325;SDS011;56471;53.508;49.252;2023-01-28T04:30:04;6.30;;;3.70;;
69325;SDS011;56471;53.508;49.252;2023-01-28T04:32:31;7.03;;;3.72;;
69325;SDS011;56471;53.508;49.252;2023-01-28T04:34:56;5.68;;;3.40;;
69325;SDS011;56471;53.508;49.252;2023-01-28T04:37:22;6.45;;;4.00;;
69325;SDS011;56471;53.508;49.252;2023-01-28T04:39:48;7.47;;;4.22;;
69325;SDS011;56471;53.508;49.252;2023-01-28T04:42:14;5.55;;;3.70;;
69325;SDS011;56471;53.508;49.252;2023-01-28T04:44:39;6.88;;;3.63;;
69325;SDS011;56471;53.508;49.252;2023-01-28T04:47:05;6.07;;;3.72;;
69325;SDS011;56471;53.508;49.252;2023-01-28T04:49:31;5.55;;;3.33;;
69325;SDS011;56471;53.508;49.252;2023-01-28T04:51:56;5.80;;;3.50;;
69325;SDS011;56471;53.508;49.252;2023-01-28T04:54:22;7.75;;;3.63;;
69325;SDS011;56471;53.508;49.252;2023-01-28T04:56:48;5.18;;;3.25;;
69325;SDS011;56471;53.508;49.252;2023-01-28T04:59:14;5.28;;;3.25;;
69325;SDS011;56471;53.508;49.252;2023-01-28T05:01:39;5.82;;;3.35;;
69325;SDS011;56471;53.508;49.252;2023-01-28T05:04:05;6.40;;;3.80;;
69325;SDS011;56471;53.508;49.252;2023-01-28T05:06:32;6.25;;;3.42;;
69325;SDS011;56471;53.508;49.252;2023-01-28T05:08:57;5.35;;;3.33;;
69325;SDS011;56471;53.508;49.252;2023-01-28T05:11:23;5.57;;;3.60;;
69325;SDS011;56471;53.508;49.252;2023-01-28T05:13:49;6.72;;;3.88;;
69325;SDS011;56471;53.508;49.252;2023-01-28T05:16:15;7.50;;;3.65;;
69325;SDS011;56471;53.508;49.252;2023-01-28T05:18:41;6.32;;;3.80;;
69325;SDS011;56471;53.508;49.252;2023-01-28T05:21:08;5.68;;;3.70;;
69325;SDS011;56471;53.508;49.252;2023-01-28T05:23:33;5.47;;;3.75;;
69325;SDS011;56471;53.508;49.252;2023-01-28T05:25:59;5.95;;;3.60;;
69325;SDS011;56471;53.508;49.252;2023-01-28T05:28:25;6.20;;;3.78;;
69325;SDS011;56471;53.508;49.252;2023-01-28T05:30:50;5.85;;;3.83;;
69325;SDS011;56471;53.508;49.252;2023-01-28T05:33:16;5.97;;;3.55;;
69325;SDS011;56471;53.508;49.252;2023-01-28T05:35:42;6.75;;;3.40;;
69325;SDS011;56471;53.508;49.252;2023-01-28T05:38:08;5.65;;;3.47;;
69325;SDS011;56471;53.508;49.252;2023-01-28T05:40:34;5.25;;;3.55;;
69325;SDS011;56471;53.508;49.252;2023-01-28T05:42:59;7.40;;;3.92;;
69325;SDS011;56471;53.508;49.252;2023-01-28T05:45:25;6.63;;;3.75;;
69325;SDS011;56471;53.508;49.252;2023-01-28T05:47:50;7.07;;;3.85;;
69325;SDS011;56471;53.508;49.252;2023-01-28T05:50:16;6.68;;;3.83;;
69325;SDS011;56471;53.508;49.252;2023-01-28T05:52:42;7.20;;;3.80;;
69325;SDS011;56471;53.508;49.252;2023-01-28T05:55:08;6.95;;;3.90;;
69325;SDS011;56471;53.508;49.252;2023-01-28T05:57:34;6.78;;;4.00;;
69325;SDS011;56471;53.508;49.252;2023-01-28T05:59:59;7.07;;;3.60;;
69325;SDS011;56471;53.508;49.252;2023-01-28T06:02:25;6.15;;;3.78;;
69325;SDS011;56471;53.508;49.252;2023-01-28T06:04:51;6.75;;;3.70;;
69325;SDS011;56471;53.508;49.252;2023-01-28T06:07:17;6.38;;;3.80;;
69325;SDS011;56471;53.508;49.252;2023-01-28T06:09:44;6.57;;;3.78;;
69325;SDS011;56471;53.508;49.252;2023-01-28T06:12:12;6.47;;;3.53;;
69325;SDS011;56471;53.508;49.252;2023-01-28T06:14:38;7.63;;;3.47;;
69325;SDS011;56471;53.508;49.252;2023-01-28T06:17:03;6.22;;;3.53;;
69325;SDS011;56471;53.508;49.252;2023-01-28T06:19:29;7.50;;;3.58;;
69325;SDS011;56471;53.508;49.252;2023-01-28T06:21:54;7.30;;;3.92;;
69325;SDS011;56471;53.508;49.252;2023-01-28T06:24:20;6.05;;;3.72;;
69325;SDS011;56471;53.508;49.252;2023-01-28T06:26:47;5.55;;;3.47;;
69325;SDS011;56471;53.508;49.252;2023-01-28T06:29:12;6.43;;;3.45;;
69325;SDS011;56471;53.508;49.252;2023-01-28T06:31:38;6.10;;;3.45;;
69325;SDS011;56471;53.508;49.252;2023-01-28T06:34:03;5.95;;;3.60;;
69325;SDS011;56471;53.508;49.252;2023-01-28T06:36:30;7.10;;;3.90;;
69325;SDS011;56471;53.508;49.252;2023-01-28T06:38:55;5.78;;;3.30;;
69325;SDS011;56471;53.508;49.252;2023-01-28T06:41:21;6.72;;;3.47;;
69325;SDS011;56471;53.508;49.252;2023-01-28T06:43:47;5.63;;;3.47;;
69325;SDS011;56471;53.508;49.252;2023-01-28T06:46:13;5.53;;;3.63;;
69325;SDS011;56471;53.508;49.252;2023-01-28T06:48:38;6.13;;;3.22;;
69325;SDS011;56471;53.508;49.252;2023-01-28T06:51:04;5.72;;;3.42;;
69325;SDS011;56471;53.508;49.252;2023-01-28T06:53:30;5.38;;;3.53;;
69325;SDS011;56471;53.508;49.252;2023-01-28T06:55:56;4.78;;;3.25;;
69325;SDS011;56471;53.508;49.252;2023-01-28T06:58:21;4.90;;;3.30;;
69325;SDS011;56471;53.508;49.252;2023-01-28T07:00:47;4.95;;;3.20;;
69325;SDS011;56471;53.508;49.252;2023-01-28T07:03:13;6.45;;;3.60;;
69325;SDS011;56471;53.508;49.252;2023-01-28T07:05:38;5.25;;;3.35;;
69325;SDS011;56471;53.508;49.252;2023-01-28T07:08:04;7.03;;;3.72;;
69325;SDS011;56471;53.508;49.252;2023-01-28T07:10:30;5.25;;;3.47;;
69325;SDS011;56471;53.508;49.252;2023-01-28T07:12:55;5.90;;;3.47;;
69325;SDS011;56471;53.508;49.252;2023-01-28T07:15:21;5.60;;;3.20;;
69325;SDS011;56471;53.508;49.252;2023-01-28T07:17:47;5.07;;;3.28;;
69325;SDS011;56471;53.508;49.252;2023-01-28T07:20:13;6.32;;;3.72;;
69325;SDS011;56471;53.508;49.252;2023-01-28T07:22:40;5.75;;;3.40;;
69325;SDS011;56471;53.508;49.252;2023-01-28T07:25:07;4.78;;;3.00;;
69325;SDS011;56471;53.508;49.252;2023-01-28T07:27:33;6.45;;;3.67;;
69325;SDS011;56471;53.508;49.252;2023-01-28T07:29:59;6.50;;;3.40;;
69325;SDS011;56471;53.508;49.252;2023-01-28T07:32:25;5.30;;;3.40;;
69325;SDS011;56471;53.508;49.252;2023-01-28T07:34:51;5.32;;;3.47;;
69325;SDS011;56471;53.508;49.252;2023-01-28T07:37:18;7.13;;;3.53;;
69325;SDS011;56471;53.508;49.252;2023-01-28T07:39:44;5.20;;;3.25;;
69325;SDS011;56471;53.508;49.252;2023-01-28T07:42:10;5.60;;;3.58;;
69325;SDS011;56471;53.508;49.252;2023-01-28T07:44:35;6.70;;;3.50;;
69325;SDS011;56471;53.508;49.252;2023-01-28T07:47:03;5.88;;;3.40;;
69325;SDS011;56471;53.508;49.252;2023-01-28T07:49:29;6.53;;;3.47;;
69325;SDS011;56471;53.508;49.252;2023-01-28T07:51:55;5.28;;;3.60;;
69325;SDS011;56471;53.508;49.252;2023-01-28T07:54:20;5.32;;;3.40;;
69325;SDS011;56471;53.508;49.252;2023-01-28T07:56:46;6.07;;;3.45;;
69325;SDS011;56471;53.508;49.252;2023-01-28T07:59:12;5.25;;;3.58;;
69325;SDS011;56471;53.508;49.252;2023-01-28T08:01:38;5.38;;;3.38;;
69325;SDS011;56471;53.508;49.252;2023-01-28T08:04:03;5.07;;;3.40;;
69325;SDS011;56471;53.508;49.252;2023-01-28T08:06:29;5.63;;;3.60;;
69325;SDS011;56471;53.508;49.252;2023-01-28T08:08:55;5.22;;;3.42;;
69325;SDS011;56471;53.508;49.252;2023-01-28T08:11:20;5.75;;;3.30;;
69325;SDS011;56471;53.508;49.252;2023-01-28T08:13:47;5.85;;;3.80;;
69325;SDS011;56471;53.508;49.252;2023-01-28T08:16:14;5.68;;;3.50;;
69325;SDS011;56471;53.508;49.252;2023-01-28T08:18:39;5.97;;;3.63;;
69325;SDS011;56471;53.508;49.252;2023-01-28T08:21:05;5.90;;;3.78;;
69325;SDS011;56471;53.508;49.252;2023-01-28T08:23:31;5.50;;;3.53;;
69325;SDS011;56471;53.508;49.252;2023-01-28T08:25:58;6.38;;;3.38;;
69325;SDS011;56471;53.508;49.252;2023-01-28T08:28:24;5.20;;;3.40;;
69325;SDS011;56471;53.508;49.252;2023-01-28T08:30:50;5.07;;;3.25;;
69325;SDS011;56471;53.508;49.252;2023-01-28T08:33:16;6.05;;;3.00;;
69325;SDS011;56471;53.508;49.252;2023-01-28T08:35:43;6.40;;;3.53;;
69325;SDS011;56471;53.508;49.252;2023-01-28T08:38:09;5.00;;;3.35;;
69325;SDS011;56471;53.508;49.252;2023-01-28T08:40:37;5.80;;;3.28;;
69325;SDS011;56471;53.508;49.252;2023-01-28T08:43:03;7.53;;;3.60;;
69325;SDS011;56471;53.508;49.252;2023-01-28T08:45:29;5.18;;;3.28;;
69325;SDS011;56471;53.508;49.252;2023-01-28T08:47:57;5.78;;;3.30;;
69325;SDS011;56471;53.508;49.252;2023-01-28T08:50:28;5.40;;;3.17;;
69325;SDS011;56471;53.508;49.252;2023-01-28T08:53:01;4.75;;;3.20;;
69325;SDS011;56471;53.508;49.252;2023-01-28T08:55:29;5.03;;;3.20;;
69325;SDS011;56471;53.508;49.252;2023-01-28T08:57:55;4.88;;;3.33;;
69325;SDS011;56471;53.508;49.252;2023-01-28T09:00:22;4.97;;;3.30;;
69325;SDS011;56471;53.508;49.252;2023-01-28T09:02:51;4.78;;;3.17;;
69325;SDS011;56471;53.508;49.252;2023-01-28T09:05:18;5.50;;;3.50;;
69325;SDS011;56471;53.508;49.252;2023-01-28T09:07:44;5.70;;;3.17;;
69325;SDS011;56471;53.508;49.252;2023-01-28T09:10:10;5.13;;;3.33;;
69325;SDS011;56471;53.508;49.252;2023-01-28T09:12:36;5.28;;;3.20;;
69325;SDS011;56471;53.508;49.252;2023-01-28T09:15:03;4.72;;;3.30;;
69325;SDS011;56471;53.508;49.252;2023-01-28T09:17:29;5.28;;;3.00;;
69325;SDS011;56471;53.508;49.252;2023-01-28T09:19:54;4.65;;;3.20;;
69325;SDS011;56471;53.508;49.252;2023-01-28T09:22:20;6.10;;;3.60;;
69325;SDS011;56471;53.508;49.252;2023-01-28T09:24:46;5.47;;;3.38;;
69325;SDS011;56471;53.508;49.252;2023-01-28T09:27:12;6.20;;;3.55;;
69325;SDS011;56471;53.508;49.252;2023-01-28T09:29:38;4.53;;;3.15;;
69325;SDS011;56471;53.508;49.252;2023-01-28T09:32:04;5.30;;;3.05;;
69325;SDS011;56471;53.508;49.252;2023-01-28T09:34:31;5.53;;;3.13;;
69325;SDS011;56471;53.508;49.252;2023-01-28T09:36:57;4.85;;;3.15;;
69325;SDS011;56471;53.508;49.252;2023-01-28T09:39:23;4.15;;;3.05;;
69325;SDS011;56471;53.508;49.252;2023-01-28T09:41:53;5.05;;;3.15;;
69325;SDS011;56471;53.508;49.252;2023-01-28T09:50:23;5.30;;;3.40;;
69325;SDS011;56471;53.508;49.252;2023-01-28T09:52:56;5.55;;;3.33;;
69325;SDS011;56471;53.508;49.252;2023-01-28T09:55:34;5.83;;;3.53;;
69325;SDS011;56471;53.508;49.252;2023-01-28T09:58:12;6.13;;;3.53;;
69325;SDS011;56471;53.508;49.252;2023-01-28T10:06:19;5.53;;;3.28;;
69325;SDS011;56471;53.508;49.252;2023-01-28T10:17:08;5.28;;;3.25;;
69325;SDS011;56471;53.508;49.252;2023-01-28T10:22:31;5.32;;;3.38;;
69325;SDS011;56471;53.508;49.252;2023-01-28T10:25:03;5.20;;;3.42;;
69325;SDS011;56471;53.508;49.252;2023-01-28T10:27:38;7.30;;;3.50;;
69325;SDS011;56471;53.508;49.252;2023-01-28T10:30:20;6.07;;;3.60;;
69325;SDS011;56471;53.508;49.252;2023-01-28T10:32:58;5.45;;;3.40;;
69325;SDS011;56471;53.508;49.252;2023-01-28T10:35:30;4.72;;;3.00;;
69325;SDS011;56471;53.508;49.252;2023-01-28T10:38:01;5.82;;;3.60;;
69325;SDS011;56471;53.508;49.252;2023-01-28T10:40:32;5.95;;;3.13;;
69325;SDS011;56471;53.508;49.252;2023-01-28T10:42:58;5.60;;;3.53;;
69325;SDS011;56471;53.508;49.252;2023-01-28T10:45:25;5.85;;;3.47;;
69325;SDS011;56471;53.508;49.252;2023-01-28T10:50:28;4.80;;;3.30;;
69325;SDS011;56471;53.508;49.252;2023-01-28T10:52:56;501.42;;;257.48;;
69325;SDS011;56471;53.508;49.252;2023-01-28T11:01:07;1029.82;;;559.97;;
69325;SDS011;56471;53.508;49.252;2023-01-28T11:03:33;947.47;;;509.70;;
69325;SDS011;56471;53.508;49.252;2023-01-28T11:06:00;883.40;;;473.42;;
69325;SDS011;56471;53.508;49.252;2023-01-28T11:08:27;810.58;;;435.63;;
69325;SDS011;56471;53.508;49.252;2023-01-28T11:10:54;747.95;;;387.50;;
69325;SDS011;56471;53.508;49.252;2023-01-28T11:13:22;684.97;;;349.85;;
69325;SDS011;56471;53.508;49.252;2023-01-28T11:21:25;546.83;;;266.05;;
69325;SDS011;56471;53.508;49.252;2023-01-28T11:24:06;496.65;;;238.10;;
69325;SDS011;56471;53.508;49.252;2023-01-28T11:26:44;464.48;;;212.27;;
69325;SDS011;56471;53.508;49.252;2023-01-28T11:29:32;429.08;;;188.15;;
69325;SDS011;56471;53.508;49.252;2023-01-28T11:32:03;399.50;;;165.18;;
69325;SDS011;56471;53.508;49.252;2023-01-28T11:34:29;365.83;;;146.00;;
69325;SDS011;56471;53.508;49.252;2023-01-28T11:37:03;337.30;;;137.85;;
69325;SDS011;56471;53.508;49.252;2023-01-28T11:39:36;307.80;;;124.85;;
69325;SDS011;56471;53.508;49.252;2023-01-28T11:42:05;283.55;;;117.13;;
69325;SDS011;56471;53.508;49.252;2023-01-28T11:44:35;268.23;;;108.70;;
69325;SDS011;56471;53.508;49.252;2023-01-28T11:47:07;243.82;;;98.18;;
69325;SDS011;56471;53.508;49.252;2023-01-28T11:55:53;182.05;;;70.68;;
69325;SDS011;56471;53.508;49.252;2023-01-28T12:12:16;779.08;;;441.50;;
69325;SDS011;56471;53.508;49.252;2023-01-28T12:15:00;702.92;;;377.98;;
69325;SDS011;56471;53.508;49.252;2023-01-28T12:20:24;534.95;;;285.50;;
69325;SDS011;56471;53.508;49.252;2023-01-28T12:28:17;354.35;;;156.15;;
69325;SDS011;56471;53.508;49.252;2023-01-28T12:31:01;305.50;;;133.90;;
69325;SDS011;56471;53.508;49.252;2023-01-28T12:36:45;218.52;;;96.57;;
69325;SDS011;56471;53.508;49.252;2023-01-28T12:42:12;169.95;;;73.43;;
69325;SDS011;56471;53.508;49.252;2023-01-28T12:44:51;148.40;;;63.60;;
69325;SDS011;56471;53.508;49.252;2023-01-28T12:47:25;134.52;;;57.50;;
69325;SDS011;56471;53.508;49.252;2023-01-28T12:50:03;120.43;;;50.92;;
69325;SDS011;56471;53.508;49.252;2023-01-28T12:52:38;107.90;;;45.47;;
69325;SDS011;56471;53.508;49.252;2023-01-28T12:57:40;85.68;;;34.05;;
69325;SDS011;56471;53.508;49.252;2023-01-28T13:00:24;77.05;;;30.05;;
69325;SDS011;56471;53.508;49.252;2023-01-28T13:03:08;65.30;;;25.80;;
69325;SDS011;56471;53.508;49.252;2023-01-28T13:05:50;58.03;;;23.15;;
69325;SDS011;56471;53.508;49.252;2023-01-28T13:08:23;50.33;;;19.88;;
69325;SDS011;56471;53.508;49.252;2023-01-28T13:10:50;43.47;;;17.20;;
69325;SDS011;56471;53.508;49.252;2023-01-28T13:13:28;44.35;;;16.95;;
69325;SDS011;56471;53.508;49.252;2023-01-28T13:15:56;37.47;;;14.35;;
69325;SDS011;56471;53.508;49.252;2023-01-28T13:18:30;33.40;;;13.55;;
69325;SDS011;56471;53.508;49.252;2023-01-28T13:21:50;31.52;;;12.30;;
69325;SDS011;56471;53.508;49.252;2023-01-28T13:29:07;24.15;;;10.15;;
69325;SDS011;56471;53.508;49.252;2023-01-28T13:31:39;22.27;;;9.63;;
69325;SDS011;56471;53.508;49.252;2023-01-28T13:34:25;21.60;;;9.13;;
69325;SDS011;56471;53.508;49.252;2023-01-28T13:36:54;22.63;;;8.15;;
69325;SDS011;56471;53.508;49.252;2023-01-28T13:39:21;19.33;;;7.78;;
69325;SDS011;56471;53.508;49.252;2023-01-28T13:41:51;15.55;;;7.00;;
69325;SDS011;56471;53.508;49.252;2023-01-28T13:44:19;15.52;;;7.25;;
69325;SDS011;56471;53.508;49.252;2023-01-28T13:49:36;14.20;;;6.78;;
69325;SDS011;56471;53.508;49.252;2023-01-28T13:52:16;13.30;;;6.50;;
69325;SDS011;56471;53.508;49.252;2023-01-28T13:54:59;13.07;;;6.20;;
69325;SDS011;56471;53.508;49.252;2023-01-28T14:18:47;447.52;;;199.85;;
69325;SDS011;56471;53.508;49.252;2023-01-28T14:21:20;388.33;;;166.55;;
69325;SDS011;56471;53.508;49.252;2023-01-28T14:31:27;240.38;;;97.75;;
69325;SDS011;56471;53.508;49.252;2023-01-28T14:34:04;209.00;;;85.47;;
69325;SDS011;56471;53.508;49.252;2023-01-28T14:36:44;174.63;;;72.25;;
69325;SDS011;56471;53.508;49.252;2023-01-28T14:39:18;153.32;;;62.60;;
69325;SDS011;56471;53.508;49.252;2023-01-28T14:41:46;139.30;;;54.60;;
69325;SDS011;56471;53.508;49.252;2023-01-28T14:44:48;117.60;;;45.97;;
69325;SDS011;56471;53.508;49.252;2023-01-28T14:50:05;91.07;;;34.08;;
69325;SDS011;56471;53.508;49.252;2023-01-28T14:53:02;78.15;;;28.95;;
69325;SDS011;56471;53.508;49.252;2023-01-28T14:55:44;69.18;;;25.30;;
69325;SDS011;56471;53.508;49.252;2023-01-28T14:58:55;54.42;;;21.08;;
69325;SDS011;56471;53.508;49.252;2023-01-28T15:01:24;53.88;;;18.77;;
69325;SDS011;56471;53.508;49.252;2023-01-28T15:03:51;42.45;;;16.48;;
69325;SDS011;56471;53.508;49.252;2023-01-28T15:06:19;38.00;;;15.32;;
69325;SDS011;56471;53.508;49.252;2023-01-28T15:08:52;38.08;;;13.82;;
69325;SDS011;56471;53.508;49.252;2023-01-28T15:11:20;33.97;;;12.80;;
69325;SDS011;56471;53.508;49.252;2023-01-28T15:13:49;29.40;;;11.70;;
69325;SDS011;56471;53.508;49.252;2023-01-28T15:16:23;24.70;;;10.23;;
69325;SDS011;56471;53.508;49.252;2023-01-28T15:18:54;23.05;;;9.40;;
69325;SDS011;56471;53.508;49.252;2023-01-28T15:21:22;20.63;;;8.55;;
69325;SDS011;56471;53.508;49.252;2023-01-28T15:23:54;20.05;;;8.65;;
69325;SDS011;56471;53.508;49.252;2023-01-28T15:26:22;16.85;;;7.80;;
69325;SDS011;56471;53.508;49.252;2023-01-28T15:28:53;16.38;;;7.30;;
69325;SDS011;56471;53.508;49.252;2023-01-28T15:31:33;15.70;;;7.30;;
69325;SDS011;56471;53.508;49.252;2023-01-28T15:34:15;14.68;;;6.72;;
69325;SDS011;56471;53.508;49.252;2023-01-28T15:36:43;16.15;;;7.15;;
69325;SDS011;56471;53.508;49.252;2023-01-28T15:41:46;13.55;;;6.43;;
69325;SDS011;56471;53.508;49.252;2023-01-28T15:44:17;15.90;;;6.20;;
69325;SDS011;56471;53.508;49.252;2023-01-28T15:46:55;12.00;;;5.78;;
69325;SDS011;56471;53.508;49.252;2023-01-28T15:49:27;11.32;;;5.97;;
69325;SDS011;56471;53.508;49.252;2023-01-28T15:52:00;12.50;;;6.32;;
69325;SDS011;56471;53.508;49.252;2023-01-28T15:54:26;10.45;;;5.78;;
69325;SDS011;56471;53.508;49.252;2023-01-28T15:56:54;12.27;;;6.40;;
69325;SDS011;56471;53.508;49.252;2023-01-28T15:59:27;12.27;;;6.18;;
69325;SDS011;56471;53.508;49.252;2023-01-28T16:04:42;11.80;;;6.05;;
69325;SDS011;56471;53.508;49.252;2023-01-28T16:07:19;13.93;;;5.78;;
69325;SDS011;56471;53.508;49.252;2023-01-28T16:09:45;11.38;;;5.55;;
69325;SDS011;56471;53.508;49.252;2023-01-28T16:12:17;10.52;;;5.82;;
69325;SDS011;56471;53.508;49.252;2023-01-28T16:14:44;11.10;;;5.72;;
69325;SDS011;56471;53.508;49.252;2023-01-28T16:17:18;10.63;;;5.82;;
69325;SDS011;56471;53.508;49.252;2023-01-28T16:19:47;12.15;;;6.32;;
69325;SDS011;56471;53.508;49.252;2023-01-28T16:22:34;11.98;;;6.25;;
69325;SDS011;56471;53.508;49.252;2023-01-28T16:25:03;10.77;;;5.68;;
69325;SDS011;56471;53.508;49.252;2023-01-28T16:27:50;10.63;;;5.90;;
69325;SDS011;56471;53.508;49.252;2023-01-28T16:30:16;10.40;;;5.95;;
69325;SDS011;56471;53.508;49.252;2023-01-28T16:32:44;12.88;;;6.05;;
69325;SDS011;56471;53.508;49.252;2023-01-28T16:35:13;12.00;;;5.68;;
69325;SDS011;56471;53.508;49.252;2023-01-28T16:37:42;11.27;;;6.00;;
69325;SDS011;56471;53.508;49.252;2023-01-28T16:40:15;11.27;;;6.00;;
69325;SDS011;56471;53.508;49.252;2023-01-28T16:42:42;10.95;;;5.70;;
69325;SDS011;56471;53.508;49.252;2023-01-28T16:45:18;11.15;;;5.93;;
69325;SDS011;56471;53.508;49.252;2023-01-28T16:47:46;10.27;;;5.93;;
69325;SDS011;56471;53.508;49.252;2023-01-28T16:50:13;11.00;;;5.65;;
69325;SDS011;56471;53.508;49.252;2023-01-28T16:52:39;12.02;;;6.25;;
69325;SDS011;56471;53.508;49.252;2023-01-28T16:55:14;9.65;;;5.30;;
69325;SDS011;56471;53.508;49.252;2023-01-28T16:57:42;10.80;;;5.75;;
69325;SDS011;56471;53.508;49.252;2023-01-28T17:00:19;10.95;;;5.70;;
69325;SDS011;56471;53.508;49.252;2023-01-28T17:02:49;12.02;;;5.75;;
69325;SDS011;56471;53.508;49.252;2023-01-28T17:05:16;10.35;;;5.80;;
69325;SDS011;56471;53.508;49.252;2023-01-28T17:07:44;10.02;;;5.85;;
69325;SDS011;56471;53.508;49.252;2023-01-28T17:10:12;10.48;;;6.00;;
69325;SDS011;56471;53.508;49.252;2023-01-28T17:12:39;11.57;;;5.60;;
69325;SDS011;56471;53.508;49.252;2023-01-28T17:15:05;11.05;;;6.00;;